sensor_id;sensor_type;location;lat;lon;timestamp;temperature;humidity
8220;DHT22;4151;51.110;7.020;2023-04-28T00:01:52;12.20;99.90
8220;DHT22;4151;51.110;7.020;2023-04-28T00:04:18;12.20;99.90
8220;DHT22;4151;51.110;7.020;2023-04-28T00:06:43;12.20;99.90
8220;DHT22;4151;51.110;7.020;2023-04-28T00:09:09;12.20;99.90
8220;DHT22;4151;51.110;7.020;2023-04-28T00:11:36;12.20;99.90
8220;DHT22;4151;51.110;7.020;2023-04-28T00:14:03;12.30;99.90
8220;DHT22;4151;51.110;7.020;2023-04-28T00:16:28;12.30;99.90
8220;DHT22;4151;51.110;7.020;2023-04-28T00:18:54;12.40;99.90
8220;DHT22;4151;51.110;7.020;2023-04-28T00:21:20;12.40;99.90
8220;DHT22;4151;51.110;7.020;2023-04-28T00:23:46;12.40;99.90
8220;DHT22;4151;51.110;7.020;2023-04-28T00:26:11;12.40;99.90
8220;DHT22;4151;51.110;7.020;2023-04-28T00:28:37;12.40;99.90
8220;DHT22;4151;51.110;7.020;2023-04-28T00:31:12;12.40;99.90
8220;DHT22;4151;51.110;7.020;2023-04-28T00:33:39;12.30;99.90
8220;DHT22;4151;51.110;7.020;2023-04-28T00:36:05;12.10;99.90
8220;DHT22;4151;51.110;7.020;2023-04-28T00:38:31;11.90;99.90
8220;DHT22;4151;51.110;7.020;2023-04-28T00:40:56;11.80;99.90
8220;DHT22;4151;51.110;7.020;2023-04-28T00:43:22;11.70;99.90
8220;DHT22;4151;51.110;7.020;2023-04-28T00:45:48;11.60;99.90
8220;DHT22;4151;51.110;7.020;2023-04-28T00:48:14;11.60;99.90
8220;DHT22;4151;51.110;7.020;2023-04-28T00:50:41;11.60;99.90
8220;DHT22;4151;51.110;7.020;2023-04-28T00:53:07;11.50;99.90
8220;DHT22;4151;51.110;7.020;2023-04-28T00:55:34;11.50;99.90
8220;DHT22;4151;51.110;7.020;2023-04-28T00:58:00;11.50;99.90
8220;DHT22;4151;51.110;7.020;2023-04-28T01:00:26;11.50;99.90
8220;DHT22;4151;51.110;7.020;2023-04-28T01:02:52;11.50;99.90
8220;DHT22;4151;51.110;7.020;2023-04-28T01:05:19;11.50;99.90
8220;DHT22;4151;51.110;7.020;2023-04-28T01:07:45;11.50;99.90
8220;DHT22;4151;51.110;7.020;2023-04-28T01:10:10;11.50;99.90
8220;DHT22;4151;51.110;7.020;2023-04-28T01:12:36;11.60;99.90
8220;DHT22;4151;51.110;7.020;2023-04-28T01:15:01;11.60;99.90
8220;DHT22;4151;51.110;7.020;2023-04-28T01:17:27;11.60;99.90
8220;DHT22;4151;51.110;7.020;2023-04-28T01:19:53;11.60;99.90
8220;DHT22;4151;51.110;7.020;2023-04-28T01:22:18;11.60;99.90
8220;DHT22;4151;51.110;7.020;2023-04-28T01:24:44;11.60;99.90
8220;DHT22;4151;51.110;7.020;2023-04-28T01:27:09;11.50;99.90
8220;DHT22;4151;51.110;7.020;2023-04-28T01:29:36;11.40;99.90
8220;DHT22;4151;51.110;7.020;2023-04-28T01:32:01;11.40;99.90
8220;DHT22;4151;51.110;7.020;2023-04-28T01:34:27;11.30;99.90
8220;DHT22;4151;51.110;7.020;2023-04-28T01:36:52;11.30;99.90
8220;DHT22;4151;51.110;7.020;2023-04-28T01:39:18;11.20;99.90
8220;DHT22;4151;51.110;7.020;2023-04-28T01:41:43;11.10;99.90
8220;DHT22;4151;51.110;7.020;2023-04-28T01:44:09;11.10;99.90
8220;DHT22;4151;51.110;7.020;2023-04-28T01:46:36;11.00;99.90
8220;DHT22;4151;51.110;7.020;2023-04-28T01:49:01;11.00;99.90
8220;DHT22;4151;51.110;7.020;2023-04-28T01:51:27;10.90;99.90
8220;DHT22;4151;51.110;7.020;2023-04-28T01:53:52;10.90;99.90
8220;DHT22;4151;51.110;7.020;2023-04-28T01:56:18;10.90;99.90
8220;DHT22;4151;51.110;7.020;2023-04-28T01:58:44;10.90;99.90
8220;DHT22;4151;51.110;7.020;2023-04-28T02:01:09;10.90;99.90
8220;DHT22;4151;51.110;7.020;2023-04-28T02:03:35;10.90;99.90
8220;DHT22;4151;51.110;7.020;2023-04-28T02:06:01;10.80;99.90
8220;DHT22;4151;51.110;7.020;2023-04-28T02:08:26;10.80;99.90
8220;DHT22;4151;51.110;7.020;2023-04-28T02:10:52;10.80;99.90
8220;DHT22;4151;51.110;7.020;2023-04-28T02:13:18;10.80;99.90
8220;DHT22;4151;51.110;7.020;2023-04-28T02:15:43;10.70;99.90
8220;DHT22;4151;51.110;7.020;2023-04-28T02:18:09;10.70;99.90
8220;DHT22;4151;51.110;7.020;2023-04-28T02:20:35;10.60;99.90
8220;DHT22;4151;51.110;7.020;2023-04-28T02:23:01;10.50;99.90
8220;DHT22;4151;51.110;7.020;2023-04-28T02:25:26;10.50;99.90
8220;DHT22;4151;51.110;7.020;2023-04-28T02:27:52;10.50;99.90
8220;DHT22;4151;51.110;7.020;2023-04-28T02:30:17;10.40;99.90
8220;DHT22;4151;51.110;7.020;2023-04-28T02:32:43;10.40;99.90
8220;DHT22;4151;51.110;7.020;2023-04-28T02:35:09;10.40;99.90
8220;DHT22;4151;51.110;7.020;2023-04-28T02:37:34;10.30;99.90
8220;DHT22;4151;51.110;7.020;2023-04-28T02:40:00;10.30;99.90
8220;DHT22;4151;51.110;7.020;2023-04-28T02:42:25;10.20;99.90
8220;DHT22;4151;51.110;7.020;2023-04-28T02:44:51;10.20;99.90
8220;DHT22;4151;51.110;7.020;2023-04-28T02:47:16;10.20;99.90
8220;DHT22;4151;51.110;7.020;2023-04-28T02:49:42;10.10;99.90
8220;DHT22;4151;51.110;7.020;2023-04-28T02:52:07;10.10;99.90
8220;DHT22;4151;51.110;7.020;2023-04-28T02:54:33;10.10;99.90
8220;DHT22;4151;51.110;7.020;2023-04-28T02:57:01;10.10;99.90
8220;DHT22;4151;51.110;7.020;2023-04-28T02:59:28;10.10;99.90
8220;DHT22;4151;51.110;7.020;2023-04-28T03:01:53;10.10;99.90
8220;DHT22;4151;51.110;7.020;2023-04-28T03:04:19;10.10;99.90
8220;DHT22;4151;51.110;7.020;2023-04-28T03:06:45;10.10;99.90
8220;DHT22;4151;51.110;7.020;2023-04-28T03:09:11;10.10;99.90
8220;DHT22;4151;51.110;7.020;2023-04-28T03:11:37;10.10;99.90
8220;DHT22;4151;51.110;7.020;2023-04-28T03:14:02;10.10;99.90
8220;DHT22;4151;51.110;7.020;2023-04-28T03:16:28;10.10;99.90
8220;DHT22;4151;51.110;7.020;2023-04-28T03:18:54;10.10;99.90
8220;DHT22;4151;51.110;7.020;2023-04-28T03:21:19;10.20;99.90
8220;DHT22;4151;51.110;7.020;2023-04-28T03:23:45;10.10;99.90
8220;DHT22;4151;51.110;7.020;2023-04-28T03:26:11;10.10;99.90
8220;DHT22;4151;51.110;7.020;2023-04-28T03:28:37;10.10;99.90
8220;DHT22;4151;51.110;7.020;2023-04-28T03:31:02;10.10;99.90
8220;DHT22;4151;51.110;7.020;2023-04-28T03:33:28;10.10;99.90
8220;DHT22;4151;51.110;7.020;2023-04-28T03:35:53;10.10;99.90
8220;DHT22;4151;51.110;7.020;2023-04-28T03:38:19;10.10;99.90
8220;DHT22;4151;51.110;7.020;2023-04-28T03:40:45;10.00;99.90
8220;DHT22;4151;51.110;7.020;2023-04-28T03:43:11;9.90;99.90
8220;DHT22;4151;51.110;7.020;2023-04-28T03:45:37;9.90;99.90
8220;DHT22;4151;51.110;7.020;2023-04-28T03:48:02;9.80;99.90
8220;DHT22;4151;51.110;7.020;2023-04-28T03:50:28;9.80;99.90
8220;DHT22;4151;51.110;7.020;2023-04-28T03:52:54;9.80;99.90
8220;DHT22;4151;51.110;7.020;2023-04-28T03:55:19;9.80;99.90
8220;DHT22;4151;51.110;7.020;2023-04-28T03:57:45;9.80;99.90
8220;DHT22;4151;51.110;7.020;2023-04-28T04:00:11;9.80;99.90
8220;DHT22;4151;51.110;7.020;2023-04-28T04:02:37;9.80;99.90
8220;DHT22;4151;51.110;7.020;2023-04-28T04:05:03;9.70;99.90
8220;DHT22;4151;51.110;7.020;2023-04-28T04:07:28;9.70;99.90
8220;DHT22;4151;51.110;7.020;2023-04-28T04:09:54;9.60;99.90
8220;DHT22;4151;51.110;7.020;2023-04-28T04:12:20;9.60;99.90
8220;DHT22;4151;51.110;7.020;2023-04-28T04:14:45;9.60;99.90
8220;DHT22;4151;51.110;7.020;2023-04-28T04:17:11;9.60;99.90
8220;DHT22;4151;51.110;7.020;2023-04-28T04:19:36;9.60;99.90
8220;DHT22;4151;51.110;7.020;2023-04-28T04:22:02;9.60;99.90
8220;DHT22;4151;51.110;7.020;2023-04-28T04:24:27;9.60;99.90
8220;DHT22;4151;51.110;7.020;2023-04-28T04:26:53;9.70;99.90
8220;DHT22;4151;51.110;7.020;2023-04-28T04:29:18;9.70;99.90
8220;DHT22;4151;51.110;7.020;2023-04-28T04:31:44;9.80;99.90
8220;DHT22;4151;51.110;7.020;2023-04-28T04:34:10;9.80;99.90
8220;DHT22;4151;51.110;7.020;2023-04-28T04:36:36;9.90;99.90
8220;DHT22;4151;51.110;7.020;2023-04-28T04:39:02;9.90;99.90
8220;DHT22;4151;51.110;7.020;2023-04-28T04:41:27;10.00;99.90
8220;DHT22;4151;51.110;7.020;2023-04-28T04:43:53;10.00;99.90
8220;DHT22;4151;51.110;7.020;2023-04-28T04:46:18;10.00;99.90
8220;DHT22;4151;51.110;7.020;2023-04-28T04:48:44;10.10;99.90
8220;DHT22;4151;51.110;7.020;2023-04-28T04:51:10;10.10;99.90
8220;DHT22;4151;51.110;7.020;2023-04-28T05:05:26;10.20;99.90
8220;DHT22;4151;51.110;7.020;2023-04-28T05:07:52;10.20;99.90
8220;DHT22;4151;51.110;7.020;2023-04-28T05:10:17;10.20;99.90
8220;DHT22;4151;51.110;7.020;2023-04-28T05:12:43;10.20;99.90
8220;DHT22;4151;51.110;7.020;2023-04-28T05:15:09;10.20;99.90
8220;DHT22;4151;51.110;7.020;2023-04-28T05:17:35;10.30;99.90
8220;DHT22;4151;51.110;7.020;2023-04-28T05:20:01;10.30;99.90
8220;DHT22;4151;51.110;7.020;2023-04-28T05:22:26;10.30;99.90
8220;DHT22;4151;51.110;7.020;2023-04-28T05:24:52;10.30;99.90
8220;DHT22;4151;51.110;7.020;2023-04-28T05:27:18;10.30;99.90
8220;DHT22;4151;51.110;7.020;2023-04-28T05:29:43;10.40;99.90
8220;DHT22;4151;51.110;7.020;2023-04-28T05:32:09;10.40;99.90
8220;DHT22;4151;51.110;7.020;2023-04-28T05:34:35;10.40;99.90
8220;DHT22;4151;51.110;7.020;2023-04-28T05:37:00;10.40;99.90
8220;DHT22;4151;51.110;7.020;2023-04-28T05:39:26;10.40;99.90
8220;DHT22;4151;51.110;7.020;2023-04-28T05:41:52;10.40;99.90
8220;DHT22;4151;51.110;7.020;2023-04-28T05:44:17;10.30;99.90
8220;DHT22;4151;51.110;7.020;2023-04-28T05:46:43;10.30;99.90
8220;DHT22;4151;51.110;7.020;2023-04-28T05:49:09;10.40;99.90
8220;DHT22;4151;51.110;7.020;2023-04-28T05:51:35;10.40;99.90
8220;DHT22;4151;51.110;7.020;2023-04-28T05:54:00;10.40;99.90
8220;DHT22;4151;51.110;7.020;2023-04-28T05:56:26;10.50;99.90
8220;DHT22;4151;51.110;7.020;2023-04-28T05:58:51;10.50;99.90
8220;DHT22;4151;51.110;7.020;2023-04-28T06:01:17;10.50;99.90
8220;DHT22;4151;51.110;7.020;2023-04-28T06:03:43;10.60;99.90
8220;DHT22;4151;51.110;7.020;2023-04-28T06:06:10;10.60;99.90
8220;DHT22;4151;51.110;7.020;2023-04-28T06:08:36;10.70;99.90
8220;DHT22;4151;51.110;7.020;2023-04-28T06:11:02;10.70;99.90
8220;DHT22;4151;51.110;7.020;2023-04-28T06:13:27;10.80;99.90
8220;DHT22;4151;51.110;7.020;2023-04-28T06:15:53;10.90;99.90
8220;DHT22;4151;51.110;7.020;2023-04-28T06:18:19;11.00;99.90
8220;DHT22;4151;51.110;7.020;2023-04-28T06:20:44;11.10;99.90
8220;DHT22;4151;51.110;7.020;2023-04-28T06:23:10;11.20;99.90
8220;DHT22;4151;51.110;7.020;2023-04-28T06:25:36;11.30;99.90
8220;DHT22;4151;51.110;7.020;2023-04-28T06:28:02;11.30;99.90
8220;DHT22;4151;51.110;7.020;2023-04-28T06:30:27;11.30;99.90
8220;DHT22;4151;51.110;7.020;2023-04-28T06:32:53;11.30;99.90
8220;DHT22;4151;51.110;7.020;2023-04-28T06:35:19;11.30;99.90
8220;DHT22;4151;51.110;7.020;2023-04-28T06:37:44;11.30;99.90
8220;DHT22;4151;51.110;7.020;2023-04-28T06:40:10;11.10;99.90
8220;DHT22;4151;51.110;7.020;2023-04-28T06:42:36;11.10;99.90
8220;DHT22;4151;51.110;7.020;2023-04-28T06:45:02;11.20;99.90
8220;DHT22;4151;51.110;7.020;2023-04-28T06:47:27;11.40;99.90
8220;DHT22;4151;51.110;7.020;2023-04-28T06:49:53;11.70;99.90
8220;DHT22;4151;51.110;7.020;2023-04-28T06:52:19;11.80;99.90
8220;DHT22;4151;51.110;7.020;2023-04-28T06:54:48;11.80;99.90
8220;DHT22;4151;51.110;7.020;2023-04-28T06:57:14;11.90;99.90
8220;DHT22;4151;51.110;7.020;2023-04-28T06:59:39;11.90;99.90
8220;DHT22;4151;51.110;7.020;2023-04-28T07:02:08;12.10;99.90
8220;DHT22;4151;51.110;7.020;2023-04-28T07:04:33;12.20;99.90
8220;DHT22;4151;51.110;7.020;2023-04-28T07:06:59;12.30;99.90
8220;DHT22;4151;51.110;7.020;2023-04-28T07:09:25;12.30;99.90
8220;DHT22;4151;51.110;7.020;2023-04-28T07:11:50;12.30;99.90
8220;DHT22;4151;51.110;7.020;2023-04-28T07:14:16;12.40;99.90
8220;DHT22;4151;51.110;7.020;2023-04-28T07:16:42;12.40;99.90
8220;DHT22;4151;51.110;7.020;2023-04-28T07:19:07;12.50;99.90
8220;DHT22;4151;51.110;7.020;2023-04-28T07:21:33;12.50;99.90
8220;DHT22;4151;51.110;7.020;2023-04-28T07:23:59;12.50;99.90
8220;DHT22;4151;51.110;7.020;2023-04-28T07:26:24;12.40;99.90
8220;DHT22;4151;51.110;7.020;2023-04-28T07:28:50;12.30;99.90
8220;DHT22;4151;51.110;7.020;2023-04-28T07:31:16;12.30;99.90
8220;DHT22;4151;51.110;7.020;2023-04-28T07:33:42;12.40;99.90
8220;DHT22;4151;51.110;7.020;2023-04-28T07:36:07;12.50;99.90
8220;DHT22;4151;51.110;7.020;2023-04-28T07:38:34;12.70;99.90
8220;DHT22;4151;51.110;7.020;2023-04-28T07:41:01;12.70;99.90
8220;DHT22;4151;51.110;7.020;2023-04-28T07:43:28;12.50;99.90
8220;DHT22;4151;51.110;7.020;2023-04-28T07:45:53;12.60;99.90
8220;DHT22;4151;51.110;7.020;2023-04-28T07:48:19;12.80;99.90
8220;DHT22;4151;51.110;7.020;2023-04-28T07:50:44;12.80;99.90
8220;DHT22;4151;51.110;7.020;2023-04-28T07:53:10;13.00;99.90
8220;DHT22;4151;51.110;7.020;2023-04-28T07:55:36;12.90;99.90
8220;DHT22;4151;51.110;7.020;2023-04-28T07:58:01;13.10;99.90
8220;DHT22;4151;51.110;7.020;2023-04-28T08:00:27;13.10;99.90
8220;DHT22;4151;51.110;7.020;2023-04-28T08:02:53;12.90;99.90
8220;DHT22;4151;51.110;7.020;2023-04-28T08:05:18;12.80;99.90
8220;DHT22;4151;51.110;7.020;2023-04-28T08:07:44;12.70;99.90
8220;DHT22;4151;51.110;7.020;2023-04-28T08:10:10;12.60;99.90
8220;DHT22;4151;51.110;7.020;2023-04-28T08:12:36;12.60;99.90
8220;DHT22;4151;51.110;7.020;2023-04-28T08:15:02;12.70;99.90
8220;DHT22;4151;51.110;7.020;2023-04-28T08:17:28;12.70;99.90
8220;DHT22;4151;51.110;7.020;2023-04-28T08:19:54;12.80;99.90
8220;DHT22;4151;51.110;7.020;2023-04-28T08:22:19;12.90;99.90
8220;DHT22;4151;51.110;7.020;2023-04-28T08:24:45;12.90;99.90
8220;DHT22;4151;51.110;7.020;2023-04-28T08:27:11;12.90;99.90
8220;DHT22;4151;51.110;7.020;2023-04-28T08:29:37;12.80;99.90
8220;DHT22;4151;51.110;7.020;2023-04-28T08:32:03;12.80;99.90
8220;DHT22;4151;51.110;7.020;2023-04-28T08:34:31;12.70;99.90
8220;DHT22;4151;51.110;7.020;2023-04-28T08:36:57;12.60;99.90
8220;DHT22;4151;51.110;7.020;2023-04-28T08:39:23;12.60;99.90
8220;DHT22;4151;51.110;7.020;2023-04-28T08:41:50;12.60;99.90
8220;DHT22;4151;51.110;7.020;2023-04-28T08:44:16;12.70;99.90
8220;DHT22;4151;51.110;7.020;2023-04-28T08:46:43;12.80;99.90
8220;DHT22;4151;51.110;7.020;2023-04-28T08:49:16;12.80;99.90
8220;DHT22;4151;51.110;7.020;2023-04-28T08:51:51;13.00;99.90
8220;DHT22;4151;51.110;7.020;2023-04-28T08:54:20;13.00;99.90
8220;DHT22;4151;51.110;7.020;2023-04-28T08:56:47;13.10;99.90
8220;DHT22;4151;51.110;7.020;2023-04-28T08:59:13;13.10;99.90
8220;DHT22;4151;51.110;7.020;2023-04-28T09:01:40;13.10;99.90
8220;DHT22;4151;51.110;7.020;2023-04-28T09:04:06;13.20;99.90
8220;DHT22;4151;51.110;7.020;2023-04-28T09:06:35;13.40;99.90
8220;DHT22;4151;51.110;7.020;2023-04-28T09:09:37;13.30;99.90
8220;DHT22;4151;51.110;7.020;2023-04-28T09:12:03;13.50;99.90
8220;DHT22;4151;51.110;7.020;2023-04-28T09:14:35;13.40;99.90
8220;DHT22;4151;51.110;7.020;2023-04-28T09:17:02;13.30;99.90
8220;DHT22;4151;51.110;7.020;2023-04-28T09:19:36;13.20;99.90
8220;DHT22;4151;51.110;7.020;2023-04-28T09:22:02;13.20;99.90
8220;DHT22;4151;51.110;7.020;2023-04-28T09:24:30;13.30;99.90
8220;DHT22;4151;51.110;7.020;2023-04-28T09:26:57;13.30;99.90
8220;DHT22;4151;51.110;7.020;2023-04-28T09:29:22;13.50;99.90
8220;DHT22;4151;51.110;7.020;2023-04-28T09:31:48;13.80;99.90
8220;DHT22;4151;51.110;7.020;2023-04-28T09:34:14;13.80;99.90
8220;DHT22;4151;51.110;7.020;2023-04-28T09:36:40;13.80;99.90
8220;DHT22;4151;51.110;7.020;2023-04-28T09:39:06;13.80;99.90
8220;DHT22;4151;51.110;7.020;2023-04-28T09:41:38;13.80;99.90
8220;DHT22;4151;51.110;7.020;2023-04-28T09:44:18;13.70;99.90
8220;DHT22;4151;51.110;7.020;2023-04-28T09:46:46;13.70;99.90
8220;DHT22;4151;51.110;7.020;2023-04-28T09:49:12;13.70;99.90
8220;DHT22;4151;51.110;7.020;2023-04-28T09:51:38;13.70;99.90
8220;DHT22;4151;51.110;7.020;2023-04-28T09:54:05;13.70;99.90
8220;DHT22;4151;51.110;7.020;2023-04-28T09:56:33;13.50;99.90
8220;DHT22;4151;51.110;7.020;2023-04-28T09:59:00;13.40;99.90
8220;DHT22;4151;51.110;7.020;2023-04-28T10:01:36;13.30;99.90
8220;DHT22;4151;51.110;7.020;2023-04-28T10:04:03;13.20;99.90
8220;DHT22;4151;51.110;7.020;2023-04-28T10:06:29;13.10;99.90
8220;DHT22;4151;51.110;7.020;2023-04-28T10:08:55;13.00;99.90
8220;DHT22;4151;51.110;7.020;2023-04-28T10:11:23;13.00;99.90
8220;DHT22;4151;51.110;7.020;2023-04-28T10:13:50;13.10;99.90
8220;DHT22;4151;51.110;7.020;2023-04-28T10:16:18;13.10;99.90
8220;DHT22;4151;51.110;7.020;2023-04-28T10:18:44;13.00;99.90
8220;DHT22;4151;51.110;7.020;2023-04-28T10:21:11;13.00;99.90
8220;DHT22;4151;51.110;7.020;2023-04-28T10:26:11;12.90;99.90
8220;DHT22;4151;51.110;7.020;2023-04-28T10:28:49;13.00;99.90
8220;DHT22;4151;51.110;7.020;2023-04-28T10:31:17;13.00;99.90
8220;DHT22;4151;51.110;7.020;2023-04-28T10:33:43;13.00;99.90
8220;DHT22;4151;51.110;7.020;2023-04-28T10:36:09;13.10;99.90
8220;DHT22;4151;51.110;7.020;2023-04-28T10:38:36;13.10;99.90
8220;DHT22;4151;51.110;7.020;2023-04-28T10:41:33;13.20;99.90
8220;DHT22;4151;51.110;7.020;2023-04-28T10:43:58;13.10;99.90
8220;DHT22;4151;51.110;7.020;2023-04-28T10:46:24;13.10;99.90
8220;DHT22;4151;51.110;7.020;2023-04-28T10:58:48;13.30;99.90
8220;DHT22;4151;51.110;7.020;2023-04-28T11:19:26;13.80;99.90
8220;DHT22;4151;51.110;7.020;2023-04-28T11:21:55;14.00;99.90
8220;DHT22;4151;51.110;7.020;2023-04-28T11:24:21;14.30;99.90
8220;DHT22;4151;51.110;7.020;2023-04-28T11:26:47;14.40;99.90
8220;DHT22;4151;51.110;7.020;2023-04-28T11:29:13;14.60;99.90
8220;DHT22;4151;51.110;7.020;2023-04-28T11:31:39;14.70;99.90
8220;DHT22;4151;51.110;7.020;2023-04-28T11:34:09;14.80;99.90
8220;DHT22;4151;51.110;7.020;2023-04-28T11:36:41;15.00;99.90
8220;DHT22;4151;51.110;7.020;2023-04-28T11:39:11;15.10;99.90
8220;DHT22;4151;51.110;7.020;2023-04-28T11:41:39;15.40;99.90
8220;DHT22;4151;51.110;7.020;2023-04-28T11:44:19;15.80;99.90
8220;DHT22;4151;51.110;7.020;2023-04-28T11:46:49;16.50;99.90
8220;DHT22;4151;51.110;7.020;2023-04-28T11:49:17;16.80;99.90
8220;DHT22;4151;51.110;7.020;2023-04-28T11:51:43;17.10;99.90
8220;DHT22;4151;51.110;7.020;2023-04-28T11:54:11;17.10;99.90
8220;DHT22;4151;51.110;7.020;2023-04-28T11:56:40;17.30;99.90
8220;DHT22;4151;51.110;7.020;2023-04-28T11:59:10;17.10;99.90
8220;DHT22;4151;51.110;7.020;2023-04-28T12:01:46;17.60;99.90
8220;DHT22;4151;51.110;7.020;2023-04-28T12:04:12;18.20;99.90
8220;DHT22;4151;51.110;7.020;2023-04-28T12:06:39;18.60;99.90
8220;DHT22;4151;51.110;7.020;2023-04-28T12:09:17;18.80;99.90
8220;DHT22;4151;51.110;7.020;2023-04-28T12:12:02;19.30;99.90
8220;DHT22;4151;51.110;7.020;2023-04-28T12:14:29;19.20;99.90
8220;DHT22;4151;51.110;7.020;2023-04-28T12:16:57;18.90;99.90
8220;DHT22;4151;51.110;7.020;2023-04-28T12:19:23;18.70;99.90
8220;DHT22;4151;51.110;7.020;2023-04-28T12:22:06;17.90;99.90
8220;DHT22;4151;51.110;7.020;2023-04-28T12:24:32;17.70;99.90
8220;DHT22;4151;51.110;7.020;2023-04-28T12:27:17;18.10;99.90
8220;DHT22;4151;51.110;7.020;2023-04-28T12:29:46;18.70;99.90
8220;DHT22;4151;51.110;7.020;2023-04-28T12:32:12;19.20;99.90
8220;DHT22;4151;51.110;7.020;2023-04-28T12:34:39;19.50;99.90
8220;DHT22;4151;51.110;7.020;2023-04-28T12:37:05;19.90;99.90
8220;DHT22;4151;51.110;7.020;2023-04-28T12:39:35;20.40;99.90
8220;DHT22;4151;51.110;7.020;2023-04-28T12:42:01;21.80;99.90
8220;DHT22;4151;51.110;7.020;2023-04-28T12:44:37;22.70;99.90
8220;DHT22;4151;51.110;7.020;2023-04-28T12:47:04;22.70;99.90
8220;DHT22;4151;51.110;7.020;2023-04-28T12:49:30;22.70;99.90
8220;DHT22;4151;51.110;7.020;2023-04-28T12:51:56;22.90;99.90
8220;DHT22;4151;51.110;7.020;2023-04-28T12:54:21;23.00;99.90
8220;DHT22;4151;51.110;7.020;2023-04-28T12:56:48;23.70;99.90
8220;DHT22;4151;51.110;7.020;2023-04-28T12:59:13;23.80;99.90
8220;DHT22;4151;51.110;7.020;2023-04-28T13:01:39;24.00;99.90
8220;DHT22;4151;51.110;7.020;2023-04-28T13:04:04;24.30;99.90
8220;DHT22;4151;51.110;7.020;2023-04-28T13:06:30;24.20;99.90
8220;DHT22;4151;51.110;7.020;2023-04-28T13:08:57;22.50;99.90
8220;DHT22;4151;51.110;7.020;2023-04-28T13:11:22;22.40;99.90
8220;DHT22;4151;51.110;7.020;2023-04-28T13:13:51;22.30;99.90
8220;DHT22;4151;51.110;7.020;2023-04-28T13:16:17;21.50;99.90
8220;DHT22;4151;51.110;7.020;2023-04-28T13:18:43;20.90;99.90
8220;DHT22;4151;51.110;7.020;2023-04-28T13:21:09;20.50;99.90
8220;DHT22;4151;51.110;7.020;2023-04-28T13:23:34;20.10;99.90
8220;DHT22;4151;51.110;7.020;2023-04-28T13:26:00;20.00;99.90
8220;DHT22;4151;51.110;7.020;2023-04-28T13:28:27;20.00;99.90
8220;DHT22;4151;51.110;7.020;2023-04-28T13:30:53;19.90;99.90
8220;DHT22;4151;51.110;7.020;2023-04-28T13:33:18;20.40;99.90
8220;DHT22;4151;51.110;7.020;2023-04-28T13:35:44;21.50;99.90
8220;DHT22;4151;51.110;7.020;2023-04-28T13:38:10;23.50;99.90
8220;DHT22;4151;51.110;7.020;2023-04-28T13:40:35;24.60;99.90
8220;DHT22;4151;51.110;7.020;2023-04-28T13:43:01;25.50;99.90
8220;DHT22;4151;51.110;7.020;2023-04-28T13:45:26;26.40;99.90
8220;DHT22;4151;51.110;7.020;2023-04-28T13:47:56;27.10;99.90
8220;DHT22;4151;51.110;7.020;2023-04-28T13:50:22;26.60;99.90
8220;DHT22;4151;51.110;7.020;2023-04-28T13:52:47;27.80;99.90
8220;DHT22;4151;51.110;7.020;2023-04-28T13:55:13;28.50;99.90
8220;DHT22;4151;51.110;7.020;2023-04-28T13:57:38;28.10;99.90
8220;DHT22;4151;51.110;7.020;2023-04-28T14:00:04;27.80;99.90
8220;DHT22;4151;51.110;7.020;2023-04-28T14:02:30;26.50;99.90
8220;DHT22;4151;51.110;7.020;2023-04-28T14:04:56;26.00;99.90
8220;DHT22;4151;51.110;7.020;2023-04-28T14:07:21;26.00;99.90
8220;DHT22;4151;51.110;7.020;2023-04-28T14:09:48;26.60;99.90
8220;DHT22;4151;51.110;7.020;2023-04-28T14:12:13;26.80;99.90
8220;DHT22;4151;51.110;7.020;2023-04-28T14:14:40;24.80;99.90
8220;DHT22;4151;51.110;7.020;2023-04-28T14:17:07;24.00;99.90
8220;DHT22;4151;51.110;7.020;2023-04-28T14:19:32;23.20;99.90
8220;DHT22;4151;51.110;7.020;2023-04-28T14:21:58;22.00;99.90
8220;DHT22;4151;51.110;7.020;2023-04-28T14:24:24;21.70;99.90
8220;DHT22;4151;51.110;7.020;2023-04-28T14:26:49;21.90;99.90
8220;DHT22;4151;51.110;7.020;2023-04-28T14:29:17;23.00;99.90
8220;DHT22;4151;51.110;7.020;2023-04-28T14:31:42;22.60;99.90
8220;DHT22;4151;51.110;7.020;2023-04-28T14:34:08;21.50;99.90
8220;DHT22;4151;51.110;7.020;2023-04-28T14:36:33;21.30;99.90
8220;DHT22;4151;51.110;7.020;2023-04-28T14:38:59;21.30;99.90
8220;DHT22;4151;51.110;7.020;2023-04-28T14:41:25;21.50;99.90
8220;DHT22;4151;51.110;7.020;2023-04-28T14:43:50;21.80;99.90
8220;DHT22;4151;51.110;7.020;2023-04-28T14:46:16;22.30;99.90
8220;DHT22;4151;51.110;7.020;2023-04-28T14:48:47;23.10;99.90
8220;DHT22;4151;51.110;7.020;2023-04-28T14:51:13;23.90;99.90
8220;DHT22;4151;51.110;7.020;2023-04-28T14:53:38;23.50;99.90
8220;DHT22;4151;51.110;7.020;2023-04-28T14:56:05;22.60;99.90
8220;DHT22;4151;51.110;7.020;2023-04-28T14:58:31;21.70;99.90
8220;DHT22;4151;51.110;7.020;2023-04-28T15:00:56;21.60;99.90
8220;DHT22;4151;51.110;7.020;2023-04-28T15:03:22;21.10;99.90
8220;DHT22;4151;51.110;7.020;2023-04-28T15:05:48;21.20;99.90
8220;DHT22;4151;51.110;7.020;2023-04-28T15:08:13;22.00;99.90
8220;DHT22;4151;51.110;7.020;2023-04-28T15:10:39;22.30;99.90
8220;DHT22;4151;51.110;7.020;2023-04-28T15:13:08;22.10;99.90
8220;DHT22;4151;51.110;7.020;2023-04-28T15:15:34;20.80;99.90
8220;DHT22;4151;51.110;7.020;2023-04-28T15:18:00;20.40;99.90
8220;DHT22;4151;51.110;7.020;2023-04-28T15:20:28;20.20;99.90
8220;DHT22;4151;51.110;7.020;2023-04-28T15:22:54;19.90;99.90
8220;DHT22;4151;51.110;7.020;2023-04-28T15:25:20;19.60;99.90
8220;DHT22;4151;51.110;7.020;2023-04-28T15:27:46;19.60;99.90
8220;DHT22;4151;51.110;7.020;2023-04-28T15:30:12;20.20;99.90
8220;DHT22;4151;51.110;7.020;2023-04-28T15:32:38;20.20;99.90
8220;DHT22;4151;51.110;7.020;2023-04-28T15:35:04;19.90;99.90
8220;DHT22;4151;51.110;7.020;2023-04-28T15:37:39;19.20;99.90
8220;DHT22;4151;51.110;7.020;2023-04-28T15:40:06;19.10;99.90
8220;DHT22;4151;51.110;7.020;2023-04-28T15:42:33;19.10;99.90
8220;DHT22;4151;51.110;7.020;2023-04-28T15:44:59;19.10;99.90
8220;DHT22;4151;51.110;7.020;2023-04-28T15:47:24;19.20;99.90
8220;DHT22;4151;51.110;7.020;2023-04-28T15:49:50;19.30;99.90
8220;DHT22;4151;51.110;7.020;2023-04-28T15:52:15;19.50;99.90
8220;DHT22;4151;51.110;7.020;2023-04-28T15:54:41;19.20;99.90
8220;DHT22;4151;51.110;7.020;2023-04-28T15:57:07;18.70;99.90
8220;DHT22;4151;51.110;7.020;2023-04-28T15:59:33;18.50;99.90
8220;DHT22;4151;51.110;7.020;2023-04-28T16:02:00;18.30;99.90
8220;DHT22;4151;51.110;7.020;2023-04-28T16:04:25;18.30;99.90
8220;DHT22;4151;51.110;7.020;2023-04-28T16:06:51;18.90;99.90
8220;DHT22;4151;51.110;7.020;2023-04-28T16:20:17;18.50;99.90
8220;DHT22;4151;51.110;7.020;2023-04-28T16:22:43;18.80;99.90
8220;DHT22;4151;51.110;7.020;2023-04-28T16:25:09;19.40;99.90
8220;DHT22;4151;51.110;7.020;2023-04-28T16:27:36;21.00;99.90
8220;DHT22;4151;51.110;7.020;2023-04-28T16:30:03;21.10;99.90
8220;DHT22;4151;51.110;7.020;2023-04-28T16:32:31;20.20;99.90
8220;DHT22;4151;51.110;7.020;2023-04-28T16:34:58;19.10;99.90
8220;DHT22;4151;51.110;7.020;2023-04-28T16:37:24;18.50;99.90
8220;DHT22;4151;51.110;7.020;2023-04-28T16:39:50;18.00;99.90
8220;DHT22;4151;51.110;7.020;2023-04-28T16:42:15;17.80;99.90
8220;DHT22;4151;51.110;7.020;2023-04-28T16:44:41;17.40;99.90
8220;DHT22;4151;51.110;7.020;2023-04-28T16:47:07;16.90;99.90
8220;DHT22;4151;51.110;7.020;2023-04-28T16:49:33;16.70;99.90
8220;DHT22;4151;51.110;7.020;2023-04-28T16:52:00;16.70;99.90